Time;durP1;ratioP1;P1;durP2;ratioP2;P2;SDS_P1;SDS_P2;PMS_P1;PMS_P2;Temp;Humidity;BMP_temperature;BMP_pressure;BME280_temperature;BME280_humidity;BME280_pressure;Samples;Min_cycle;Max_cycle;Signal;HPM_P1;HPM_P2
2021/12/02 00:02:12;;;;;;;8.95;2.67;;;;;;;7.02;73.14;98438.47;5073183;28;20056;-67
2021/12/02 00:07:12;;;;;;;11.05;2.50;;;;;;;6.81;72.52;98437.69;4094466;22;20063;-79
2021/12/02 00:09:40;;;;;;;14.18;3.58;;;;;;;6.90;73.00;98441.97;5055996;28;20382;-79
2021/12/02 00:12:09;;;;;;;8.52;2.90;;;;;;;6.85;72.81;98438.63;5053090;28;20104;-79
2021/12/02 00:14:42;;;;;;;6.30;2.50;;;;;;;6.93;73.05;98450.75;5048479;28;20045;-79
2021/12/02 00:17:14;;;;;;;13.95;3.00;;;;;;;6.86;71.77;98441.03;5055889;28;20049;-80
2021/12/02 00:22:28;;;;;;;11.07;2.70;;;;;;;6.81;72.32;98454.28;5058065;28;20060;-80
2021/12/02 00:25:00;;;;;;;11.73;2.50;;;;;;;6.80;71.96;98444.34;5055998;28;20048;-80
2021/12/02 00:27:29;;;;;;;6.93;2.40;;;;;;;6.77;72.09;98447.81;5055074;28;20128;-80
2021/12/02 00:29:59;;;;;;;10.70;2.97;;;;;;;6.86;72.16;98452.09;5055591;28;20057;-80
2021/12/02 00:32:29;;;;;;;12.57;3.40;;;;;;;6.83;71.54;98452.78;5038438;28;20072;-79
2021/12/02 00:34:57;;;;;;;10.10;2.83;;;;;;;6.75;71.03;98450.91;5042237;28;20075;-80
2021/12/02 00:37:26;;;;;;;9.88;2.72;;;;;;;6.72;72.12;98457.13;5039914;28;20068;-80
2021/12/02 00:39:57;;;;;;;11.68;2.75;;;;;;;6.76;71.74;98449.78;5036013;28;20061;-80
2021/12/02 00:42:26;;;;;;;14.98;3.58;;;;;;;6.78;70.79;98455.75;5037016;28;20057;-80
2021/12/02 00:44:54;;;;;;;11.98;3.15;;;;;;;6.77;71.76;98456.91;5035483;28;20053;-80
2021/12/02 00:47:23;;;;;;;13.05;2.80;;;;;;;6.74;71.56;98462.31;5049548;28;20048;-80
2021/12/02 00:49:51;;;;;;;7.82;3.10;;;;;;;6.79;70.95;98460.16;5055173;28;20059;-80
2021/12/02 00:52:19;;;;;;;9.98;3.25;;;;;;;6.71;70.46;98459.06;5055411;28;20052;-80
2021/12/02 00:54:49;;;;;;;9.75;3.33;;;;;;;6.81;71.31;98454.28;5053594;28;20056;-80
2021/12/02 00:57:16;;;;;;;7.25;2.25;;;;;;;6.90;70.96;98455.81;5048749;28;20048;-80
2021/12/02 00:59:44;;;;;;;11.57;3.00;;;;;;;6.85;71.52;98460.78;5053861;28;20052;-80
2021/12/02 01:02:11;;;;;;;12.15;3.15;;;;;;;6.79;71.11;98451.84;5049079;28;20048;-80
2021/12/02 01:04:40;;;;;;;10.55;3.03;;;;;;;6.65;70.46;98459.63;5054933;28;20060;-80
2021/12/02 01:07:08;;;;;;;11.30;2.60;;;;;;;6.79;70.59;98465.69;5054032;28;20053;-79
2021/12/02 01:09:35;;;;;;;8.93;2.67;;;;;;;6.73;70.49;98464.28;5053011;28;20052;-78
2021/12/02 01:12:04;;;;;;;10.30;2.72;;;;;;;6.77;70.92;98469.94;5054603;28;20490;-79
2021/12/02 01:14:31;;;;;;;10.40;2.58;;;;;;;6.76;70.26;98465.56;5054718;28;20520;-79
2021/12/02 01:16:58;;;;;;;7.78;2.60;;;;;;;6.77;70.23;98464.41;5037901;28;20521;-79
2021/12/02 01:19:26;;;;;;;16.25;3.33;;;;;;;6.71;70.39;98459.06;5035540;28;20050;-79
2021/12/02 01:21:56;;;;;;;10.02;2.97;;;;;;;6.75;69.64;98461.97;5047684;28;20513;-79
2021/12/02 01:24:27;;;;;;;11.73;2.92;;;;;;;6.75;69.38;98470.28;5054510;28;20064;-79
2021/12/02 01:26:56;;;;;;;9.85;3.55;;;;;;;6.70;68.83;98464.97;5053835;28;20045;-79
2021/12/02 01:29:25;;;;;;;8.68;2.40;;;;;;;6.72;69.54;98473.75;5054574;28;20052;-79
2021/12/02 01:31:59;;;;;;;10.05;2.70;;;;;;;6.67;69.35;98474.72;5037483;28;20497;-79
2021/12/02 01:34:29;;;;;;;12.07;3.38;;;;;;;6.81;69.69;98470.91;5036917;28;20057;-79
2021/12/02 01:36:58;;;;;;;9.45;2.53;;;;;;;6.93;69.50;98472.88;5053787;28;20053;-79
2021/12/02 01:39:28;;;;;;;9.90;2.55;;;;;;;6.84;68.86;98470.19;5054631;28;20056;-79
2021/12/02 01:41:57;;;;;;;12.85;2.70;;;;;;;6.95;69.12;98470.59;5053851;28;20060;-79
2021/12/02 01:44:29;;;;;;;10.82;2.65;;;;;;;6.94;69.17;98469.78;5054336;28;20056;-79
2021/12/02 01:46:59;;;;;;;12.27;2.50;;;;;;;6.81;69.67;98463.41;5053597;28;20064;-79
2021/12/02 01:49:31;;;;;;;9.32;2.20;;;;;;;6.98;69.23;98476.28;5054172;28;20053;-79
2021/12/02 01:52:02;;;;;;;13.93;2.97;;;;;;;6.98;68.96;98469.94;5037385;28;20061;-79
2021/12/02 01:54:29;;;;;;;10.43;2.72;;;;;;;7.06;69.44;98471.81;5034385;28;20057;-78
2021/12/02 01:57:05;;;;;;;9.43;2.90;;;;;;;7.07;68.05;98468.69;5049812;28;20053;-79
2021/12/02 01:59:35;;;;;;;10.27;2.47;;;;;;;7.15;68.73;98469.75;5054001;28;20049;-79
2021/12/02 02:02:05;;;;;;;8.85;2.75;;;;;;;7.08;68.52;98469.50;5044078;28;20041;-79
2021/12/02 02:04:32;;;;;;;8.45;2.38;;;;;;;7.15;69.51;98477.25;5053080;28;20049;-79
2021/12/02 02:07:05;;;;;;;12.60;2.83;;;;;;;7.12;69.16;98467.69;5053372;28;20402;-79
2021/12/02 02:09:34;;;;;;;12.38;2.75;;;;;;;7.11;69.05;98477.13;5045356;28;20383;-79
2021/12/02 02:12:04;;;;;;;12.52;2.40;;;;;;;7.12;68.29;98476.00;5033746;28;20494;-79
2021/12/02 02:14:31;;;;;;;;;;;;;;;7.06;67.45;98471.81;5037472;28;20053;-79
2021/12/02 02:17:01;;;;;;;9.77;2.72;;;;;;;6.94;68.44;98471.75;5051749;28;19936;-79
2021/12/02 02:19:31;;;;;;;10.63;2.92;;;;;;;6.78;68.00;98468.78;5051116;28;20395;-79
2021/12/02 02:22:00;;;;;;;7.18;2.83;;;;;;;6.76;69.57;98471.09;5033725;28;20073;-79
2021/12/02 02:24:28;;;;;;;10.10;3.35;;;;;;;6.82;68.88;98467.75;5034525;28;20057;-79
2021/12/02 02:26:55;;;;;;;8.80;2.70;;;;;;;6.71;69.53;98466.56;5047837;28;20053;-79
2021/12/02 02:29:23;;;;;;;10.10;2.72;;;;;;;6.67;70.68;98463.66;5053573;28;20056;-79
2021/12/02 02:31:50;;;;;;;8.57;3.22;;;;;;;6.76;69.40;98469.16;5053599;28;20044;-79
2021/12/02 02:34:22;;;;;;;10.75;3.17;;;;;;;6.72;69.48;98459.91;5051880;28;20052;-79
2021/12/02 02:36:52;;;;;;;15.45;3.60;;;;;;;6.71;70.61;98461.03;5051630;28;20057;-79
2021/12/02 02:39:21;;;;;;;;;;;;;;;6.68;69.41;98467.25;5053964;28;20056;-79
2021/12/02 02:41:55;;;;;;;11.95;3.17;;;;;;;6.78;69.51;98460.50;5033943;28;19944;-78
2021/12/02 02:44:23;;;;;;;11.77;3.28;;;;;;;6.84;70.66;98462.69;5033242;28;20049;-78
2021/12/02 02:46:51;;;;;;;8.80;3.22;;;;;;;6.90;69.86;98469.66;5052917;28;20413;-79
2021/12/02 02:49:18;;;;;;;12.07;3.50;;;;;;;6.80;70.04;98474.78;5053141;28;20049;-79
2021/12/02 02:51:46;;;;;;;11.98;3.60;;;;;;;6.75;70.92;98481.34;5050676;28;20056;-78
2021/12/02 02:54:16;;;;;;;11.07;4.47;;;;;;;6.75;71.26;98461.97;5053089;28;20107;-78
2021/12/02 02:56:51;;;;;;;16.58;5.07;;;;;;;6.64;70.76;98456.06;5036045;28;20402;-78
2021/12/02 02:59:28;;;;;;;13.25;4.75;;;;;;;6.74;71.25;98454.84;5042798;28;20067;-78
2021/12/02 03:02:05;;;;;;;20.60;6.75;;;;;;;6.78;71.52;98461.28;5052897;28;20052;-78
2021/12/02 03:07:57;;;;;;;11.25;5.15;;;;;;;6.81;71.00;98455.09;5047620;28;20052;-79
2021/12/02 03:10:38;;;;;;;12.93;4.90;;;;;;;6.74;71.52;98468.69;5042041;28;20506;-79
2021/12/02 03:13:15;;;;;;;12.10;4.70;;;;;;;6.70;70.88;98462.19;5052494;28;20056;-79
2021/12/02 03:18:30;;;;;;;11.98;3.67;;;;;;;6.66;71.09;98456.53;5034757;28;20406;-79
2021/12/02 03:20:57;;;;;;;14.38;4.85;;;;;;;6.64;71.70;98456.06;5052943;28;20474;-78
2021/12/02 03:23:25;;;;;;;9.52;3.85;;;;;;;6.66;71.48;98455.72;5051964;28;20059;-78
2021/12/02 03:25:53;;;;;;;10.82;4.40;;;;;;;6.66;71.90;98461.25;5053406;28;20536;-79
2021/12/02 03:28:22;;;;;;;9.35;4.90;;;;;;;6.78;72.09;98461.28;5053018;28;20499;-79
2021/12/02 03:30:49;;;;;;;9.52;4.88;;;;;;;6.77;72.09;98467.19;5051548;28;20060;-79
2021/12/02 03:33:16;;;;;;;9.73;5.28;;;;;;;6.71;71.76;98469.34;5044439;28;20488;-79
2021/12/02 03:35:43;;;;;;;9.70;4.70;;;;;;;6.72;71.92;98473.75;5038541;28;20049;-79
2021/12/02 03:38:11;;;;;;;11.00;5.03;;;;;;;6.75;71.56;98470.28;5036738;28;20057;-79
2021/12/02 03:40:38;;;;;;;9.68;4.47;;;;;;;6.57;71.12;98488.16;5037411;28;20066;-79
2021/12/02 03:43:05;;;;;;;8.80;4.97;;;;;;;6.59;71.44;98478.38;5037257;28;20053;-79
2021/12/02 03:45:37;;;;;;;11.63;6.40;;;;;;;6.64;71.36;98486.47;5051254;28;20060;-79
2021/12/02 03:48:05;;;;;;;9.75;6.38;;;;;;;6.53;72.61;98476.97;5056705;28;20060;-79
2021/12/02 03:50:32;;;;;;;10.35;7.22;;;;;;;6.50;71.93;98478.44;5055844;28;20072;-79
2021/12/02 03:52:59;;;;;;;13.43;7.57;;;;;;;6.52;71.21;98480.06;5056927;28;20417;-79
2021/12/02 03:55:27;;;;;;;9.93;7.30;;;;;;;6.55;71.92;98479.38;5055761;28;20048;-79
2021/12/02 03:57:54;;;;;;;12.95;7.40;;;;;;;6.52;71.67;98478.09;5056756;28;20394;-79
2021/12/02 04:00:22;;;;;;;8.77;7.28;;;;;;;6.47;71.64;98475.56;5055534;28;20060;-79
2021/12/02 04:02:51;;;;;;;12.90;8.32;;;;;;;6.29;72.09;98477.63;5055942;28;20482;-79
2021/12/02 04:05:18;;;;;;;15.57;9.77;;;;;;;6.36;72.77;98468.78;5054597;28;20072;-79
2021/12/02 04:07:46;;;;;;;12.00;9.65;;;;;;;6.37;72.34;98468.47;5055675;28;20411;-79
2021/12/02 04:10:13;;;;;;;11.27;9.00;;;;;;;6.37;71.87;98462.94;5045523;28;20045;-79
2021/12/02 04:12:50;;;;;;;11.90;9.68;;;;;;;6.45;72.23;98467.59;5045614;28;20380;-79
2021/12/02 04:15:23;;;;;;;14.35;10.32;;;;;;;6.48;72.34;98464.13;5036254;28;20455;-79
2021/12/02 04:17:52;;;;;;;15.10;10.05;;;;;;;6.48;72.08;98458.59;5036226;28;20495;-79
2021/12/02 04:20:22;;;;;;;13.40;10.55;;;;;;;6.41;71.92;98468.59;5035950;28;20053;-79
2021/12/02 04:22:51;;;;;;;13.20;9.32;;;;;;;6.44;71.39;98468.72;5043904;28;20056;-79
2021/12/02 04:25:19;;;;;;;14.18;9.65;;;;;;;6.38;71.45;98466.50;5055981;28;20049;-79
2021/12/02 04:27:48;;;;;;;14.60;9.70;;;;;;;6.39;71.71;98471.69;5047531;28;20060;-79
2021/12/02 04:30:20;;;;;;;15.55;10.68;;;;;;;6.28;71.28;98479.56;5035902;28;20060;-78
2021/12/02 04:32:47;;;;;;;14.95;10.45;;;;;;;6.27;71.56;98471.59;5042705;28;20061;-78
2021/12/02 04:35:18;;;;;;;16.92;11.30;;;;;;;6.31;71.45;98475.31;5055624;28;20056;-79
2021/12/02 04:37:46;;;;;;;15.05;10.43;;;;;;;6.32;72.12;98488.03;5052274;28;20421;-78
2021/12/02 04:40:16;;;;;;;13.35;10.38;;;;;;;6.23;72.32;98478.94;5054649;28;20144;-79
2021/12/02 04:42:44;;;;;;;16.88;11.10;;;;;;;6.27;72.59;98485.44;5048694;28;20060;-78
2021/12/02 04:45:12;;;;;;;15.75;10.82;;;;;;;6.20;72.34;98487.94;5035224;28;20053;-79
2021/12/02 04:47:40;;;;;;;17.60;10.45;;;;;;;6.28;72.35;98485.09;5036294;28;20057;-78
2021/12/02 04:50:10;;;;;;;16.20;10.20;;;;;;;6.34;72.69;98490.44;5035069;28;20525;-79
2021/12/02 04:52:39;;;;;;;15.13;10.05;;;;;;;6.43;71.63;98491.19;5035256;28;20060;-78
2021/12/02 04:55:09;;;;;;;11.43;8.88;;;;;;;6.40;71.08;98492.66;5035115;28;20049;-78
2021/12/02 04:57:37;;;;;;;11.90;7.53;;;;;;;6.43;71.35;98496.72;5036782;28;20056;-78
2021/12/02 05:00:06;;;;;;;11.40;7.10;;;;;;;6.39;70.99;98496.59;5054869;28;20062;-79
2021/12/02 05:02:34;;;;;;;9.18;6.10;;;;;;;6.33;71.05;98500.69;5052682;28;20053;-79
2021/12/02 05:05:01;;;;;;;9.55;6.15;;;;;;;6.35;71.00;98495.63;5044406;28;20045;-79
2021/12/02 05:07:29;;;;;;;9.98;6.43;;;;;;;6.34;71.10;98490.44;5052857;28;20064;-79
2021/12/02 05:10:00;;;;;;;6.60;4.47;;;;;;;6.36;70.94;98488.94;5054598;28;20061;-79
2021/12/02 05:12:27;;;;;;;8.05;3.78;;;;;;;6.35;70.17;98500.34;5053592;28;20053;-79
2021/12/02 05:14:55;;;;;;;8.30;4.60;;;;;;;6.41;70.50;98486.00;5055248;28;20053;-78
2021/12/02 05:17:22;;;;;;;12.60;6.90;;;;;;;6.34;70.34;98490.44;5054536;28;20056;-79
2021/12/02 05:19:49;;;;;;;9.95;5.18;;;;;;;6.41;71.06;98491.53;5034915;28;20053;-79
2021/12/02 05:22:17;;;;;;;8.13;5.97;;;;;;;6.43;70.46;98485.66;5034515;28;20053;-79
2021/12/02 05:24:44;;;;;;;8.10;5.72;;;;;;;6.37;70.97;98489.78;5054222;28;20052;-78
2021/12/02 05:27:14;;;;;;;8.75;4.82;;;;;;;6.47;71.11;98483.84;5038258;28;20057;-79
2021/12/02 05:29:42;;;;;;;9.45;5.80;;;;;;;6.55;71.15;98484.91;5053749;28;20045;-79
2021/12/02 05:32:11;;;;;;;11.90;6.82;;;;;;;6.50;70.83;98486.72;5054862;28;20053;-80
2021/12/02 05:34:39;;;;;;;8.40;6.00;;;;;;;6.57;71.04;98485.38;5051877;28;20049;-79
2021/12/02 05:37:06;;;;;;;9.32;7.25;;;;;;;6.56;70.54;98486.56;5054737;28;20071;-79
2021/12/02 05:39:34;;;;;;;12.02;7.57;;;;;;;6.64;71.21;98493.97;5052954;28;20053;-79
2021/12/02 05:42:01;;;;;;;10.95;7.90;;;;;;;6.65;70.84;98488.09;5038883;28;20049;-79
2021/12/02 05:44:31;;;;;;;13.75;8.80;;;;;;;6.62;70.93;98490.75;5034379;28;20061;-79
2021/12/02 05:46:58;;;;;;;15.05;9.88;;;;;;;6.55;70.50;98480.22;5034772;28;20057;-79
2021/12/02 05:49:27;;;;;;;14.75;10.18;;;;;;;6.59;70.74;98491.41;5034209;28;20053;-79
2021/12/02 05:51:54;;;;;;;16.55;11.68;;;;;;;6.63;70.56;98487.63;5048807;28;20057;-79
2021/12/02 05:54:22;;;;;;;13.95;10.77;;;;;;;6.58;70.46;98495.31;5053988;28;20056;-79
2021/12/02 05:56:49;;;;;;;15.30;10.95;;;;;;;6.51;69.98;98487.56;5040762;28;20061;-79
2021/12/02 05:59:16;;;;;;;12.45;8.93;;;;;;;6.46;69.76;98491.31;5036058;28;20402;-79
2021/12/02 06:01:45;;;;;;;13.75;8.98;;;;;;;6.38;69.79;98491.38;5038331;28;20049;-79
2021/12/02 06:04:13;;;;;;;11.68;8.73;;;;;;;6.34;70.17;98495.97;5034042;28;20076;-79
2021/12/02 06:06:41;;;;;;;14.05;9.77;;;;;;;6.32;70.22;98504.59;5043630;28;20044;-79
2021/12/02 06:09:09;;;;;;;16.70;10.48;;;;;;;6.28;70.63;98498.94;5053858;28;20390;-79
2021/12/02 06:11:36;;;;;;;15.98;10.85;;;;;;;6.28;69.99;98493.41;5042570;28;20121;-79
2021/12/02 06:14:04;;;;;;;19.02;11.85;;;;;;;6.29;70.74;98500.53;5052033;28;20071;-79
2021/12/02 06:16:31;;;;;;;15.77;11.90;;;;;;;6.29;70.86;98500.53;5052366;28;20068;-79
2021/12/02 06:19:00;;;;;;;15.30;10.95;;;;;;;6.30;70.62;98501.38;5053576;28;20062;-79
2021/12/02 06:21:27;;;;;;;16.10;11.15;;;;;;;6.23;70.47;98512.13;5047767;28;20044;-79
2021/12/02 06:23:56;;;;;;;18.38;10.07;;;;;;;6.33;70.07;98517.28;5043191;28;20061;-79
2021/12/02 06:26:23;;;;;;;14.32;9.45;;;;;;;6.33;70.63;98522.81;5036548;28;20053;-79
2021/12/02 06:28:50;;;;;;;11.02;6.90;;;;;;;6.30;70.21;98521.53;5049084;28;20391;-79
2021/12/02 06:31:18;;;;;;;13.23;6.88;;;;;;;6.35;69.35;98530.78;5053015;28;20412;-79
2021/12/02 06:33:46;;;;;;;8.93;5.22;;;;;;;6.34;69.01;98535.50;5033733;28;20053;-79
2021/12/02 06:36:14;;;;;;;7.03;5.15;;;;;;;6.26;69.73;98528.06;5033773;28;20060;-79
2021/12/02 06:38:42;;;;;;;9.68;5.53;;;;;;;6.22;69.73;98535.41;5048040;28;20052;-79
2021/12/02 06:41:10;;;;;;;11.38;5.55;;;;;;;6.33;69.85;98542.16;5033392;28;20056;-79
2021/12/02 06:43:37;;;;;;;10.00;5.15;;;;;;;6.37;69.43;98542.31;5050612;28;20052;-79
2021/12/02 06:46:04;;;;;;;7.13;5.00;;;;;;;6.26;69.10;98545.44;5053426;28;20056;-79
2021/12/02 06:48:32;;;;;;;6.78;4.95;;;;;;;6.22;68.56;98550.03;5039256;28;20046;-79
2021/12/02 06:50:59;;;;;;;8.75;4.80;;;;;;;6.26;68.81;98550.97;5033544;28;20398;-79
2021/12/02 06:53:30;;;;;;;6.82;5.22;;;;;;;6.30;69.15;98553.91;5048011;28;20409;-79
2021/12/02 06:55:57;;;;;;;7.10;4.82;;;;;;;6.21;69.13;98553.13;5044513;28;20045;-79
2021/12/02 06:58:24;;;;;;;7.95;5.13;;;;;;;6.28;68.85;98553.41;5049635;28;20053;-79
2021/12/02 07:00:51;;;;;;;7.07;5.50;;;;;;;6.32;69.14;98553.53;5052215;28;20075;-79
2021/12/02 07:03:19;;;;;;;10.07;5.90;;;;;;;6.32;69.41;98562.69;5050753;28;20049;-79
2021/12/02 07:05:46;;;;;;;9.60;7.00;;;;;;;6.33;69.79;98555.97;5049821;28;20053;-79
2021/12/02 07:08:14;;;;;;;8.93;5.80;;;;;;;6.34;70.08;98574.22;5042182;28;20053;-77
2021/12/02 07:10:43;;;;;;;9.52;6.10;;;;;;;6.34;69.81;98578.91;5043159;28;20045;-76
2021/12/02 07:13:11;;;;;;;9.80;6.22;;;;;;;6.33;69.35;98583.63;5041809;28;20067;-77
2021/12/02 07:15:43;;;;;;;8.32;5.47;;;;;;;6.32;68.91;98581.19;5048465;28;20041;-78
2021/12/02 07:18:15;;;;;;;9.80;5.50;;;;;;;6.36;69.46;98587.69;5052325;28;20524;-78
2021/12/02 07:20:44;;;;;;;12.85;6.43;;;;;;;6.40;68.49;98580.34;5052382;28;20052;-79
2021/12/02 07:23:12;;;;;;;8.40;5.07;;;;;;;6.40;68.75;98588.63;5052006;28;20049;-78
2021/12/02 07:25:40;;;;;;;7.68;4.75;;;;;;;6.39;69.11;98587.03;5041455;28;20056;-78
2021/12/02 07:28:11;;;;;;;7.20;4.55;;;;;;;6.36;69.24;98594.00;5052789;28;20091;-78
2021/12/02 07:30:39;;;;;;;6.75;4.53;;;;;;;6.34;69.21;98598.25;5049575;28;20053;-80
2021/12/02 07:33:09;;;;;;;8.82;4.68;;;;;;;6.41;69.04;98599.38;5044888;28;20512;-79
2021/12/02 07:35:37;;;;;;;5.95;4.25;;;;;;;6.27;69.67;98602.34;5045819;28;20057;-78
2021/12/02 07:38:05;;;;;;;8.30;5.22;;;;;;;6.27;69.14;98602.34;5050038;28;20053;-77
2021/12/02 07:40:36;;;;;;;6.57;4.47;;;;;;;6.36;69.21;98607.84;5052539;28;20048;-77
2021/12/02 07:43:04;;;;;;;7.70;4.40;;;;;;;6.22;68.98;98605.31;5047979;28;20049;-76
2021/12/02 07:45:35;;;;;;;5.75;4.65;;;;;;;6.27;69.79;98612.59;5049544;28;20056;-76
2021/12/02 07:48:04;;;;;;;6.85;3.75;;;;;;;6.27;68.60;98620.91;5052225;28;20488;-76
2021/12/02 07:50:32;;;;;;;4.97;3.93;;;;;;;6.23;69.61;98622.69;5052209;28;20056;-76
2021/12/02 07:53:01;;;;;;;5.68;3.67;;;;;;;6.28;70.12;98617.00;5051732;28;20057;-77
2021/12/02 07:55:33;;;;;;;5.70;3.97;;;;;;;6.30;70.88;98618.28;5047079;28;20060;-80
2021/12/02 07:58:01;;;;;;;5.75;4.38;;;;;;;6.34;71.13;98623.97;5037703;28;20053;-78
2021/12/02 08:00:30;;;;;;;6.88;5.18;;;;;;;6.39;72.34;98621.03;5042554;28;20049;-78
2021/12/02 08:02:59;;;;;;;9.45;6.15;;;;;;;6.41;72.39;98624.25;5038349;28;20048;-78
2021/12/02 08:05:27;;;;;;;7.05;4.80;;;;;;;6.58;73.48;98628.09;5040809;28;20042;-78
2021/12/02 08:07:55;;;;;;;8.93;5.25;;;;;;;6.71;73.33;98622.31;5038823;28;20053;-77
2021/12/02 08:10:29;;;;;;;7.57;4.53;;;;;;;6.90;73.16;98630.16;5048290;28;20049;-79
2021/12/02 08:12:59;;;;;;;6.53;4.20;;;;;;;7.22;71.18;98627.03;5039653;28;20060;-80
2021/12/02 08:15:27;;;;;;;;;;;;;;;7.32;68.76;98637.69;5040117;28;20045;-81
2021/12/02 08:17:56;;;;;;;6.75;3.78;;;;;;;7.31;69.94;98650.75;5048900;28;20386;-80
2021/12/02 08:20:27;;;;;;;7.53;4.15;;;;;;;7.29;69.51;98644.72;5053278;28;20053;-80
2021/12/02 08:22:56;;;;;;;5.32;4.07;;;;;;;7.27;69.58;98660.88;5043925;28;20048;-80
2021/12/02 08:25:26;;;;;;;9.13;5.47;;;;;;;7.15;68.95;98660.78;5042378;28;20581;-81
2021/12/02 08:27:55;;;;;;;8.38;6.03;;;;;;;7.02;68.99;98664.63;5050896;28;20049;-81
2021/12/02 08:30:26;;;;;;;8.60;6.05;;;;;;;6.96;69.75;98660.44;5053439;28;20044;-81
2021/12/02 08:32:54;;;;;;;10.60;7.25;;;;;;;7.02;68.83;98664.63;5036903;28;20049;-80
2021/12/02 08:35:22;;;;;;;10.25;7.10;;;;;;;7.04;69.14;98662.34;5041595;28;20052;-79
2021/12/02 08:37:53;;;;;;;10.77;7.28;;;;;;;7.10;68.57;98667.34;5054804;28;20056;-81
2021/12/02 08:40:28;;;;;;;8.75;7.22;;;;;;;7.13;68.08;98667.81;5045602;28;20064;-81
2021/12/02 08:42:55;;;;;;;11.07;8.52;;;;;;;7.05;68.63;98675.03;5052454;28;20056;-80
2021/12/02 08:45:23;;;;;;;11.90;8.45;;;;;;;7.14;68.34;98673.03;5048343;28;20449;-80
2021/12/02 08:47:50;;;;;;;10.98;8.68;;;;;;;7.02;68.21;98681.25;5042488;28;20049;-81
2021/12/02 08:50:20;;;;;;;10.25;8.43;;;;;;;7.26;66.72;98680.59;5049909;28;20399;-80
2021/12/02 08:52:49;;;;;;;9.57;7.88;;;;;;;7.36;67.31;98685.72;5053344;28;20044;-81
2021/12/02 08:55:19;;;;;;;10.35;7.97;;;;;;;7.31;66.91;98683.97;5047344;28;20050;-82
2021/12/02 08:57:48;;;;;;;8.50;7.25;;;;;;;7.30;66.81;98689.84;5043221;28;20060;-80
2021/12/02 09:00:18;;;;;;;8.73;6.82;;;;;;;7.36;66.10;98691.28;5054010;28;20052;-80
2021/12/02 09:02:46;;;;;;;8.50;7.10;;;;;;;7.37;65.95;98697.63;5054687;28;20053;-81
2021/12/02 09:05:14;;;;;;;8.50;7.15;;;;;;;7.43;65.68;98699.88;5050232;28;20067;-80
2021/12/02 09:07:43;;;;;;;8.93;7.00;;;;;;;7.30;65.44;98696.19;5051979;28;20064;-81
2021/12/02 09:10:11;;;;;;;7.03;5.65;;;;;;;7.46;64.72;98701.16;5053016;28;20072;-81
2021/12/02 09:12:39;;;;;;;7.10;5.35;;;;;;;7.21;64.29;98700.19;5054325;28;20049;-80
2021/12/02 09:15:09;;;;;;;4.85;4.13;;;;;;;7.22;64.27;98707.31;5036774;28;20057;-81
2021/12/02 09:17:36;;;;;;;6.70;4.50;;;;;;;7.28;63.83;98709.56;5048579;28;20060;-82
2021/12/02 09:20:06;;;;;;;5.57;4.65;;;;;;;7.23;64.68;98715.31;5048854;28;20510;-80
2021/12/02 09:22:34;;;;;;;5.97;4.53;;;;;;;7.32;64.06;98720.78;5049824;28;20433;-81
2021/12/02 09:25:02;;;;;;;6.60;4.70;;;;;;;7.34;63.55;98721.25;5046346;28;20040;-80
2021/12/02 09:27:29;;;;;;;6.32;4.25;;;;;;;7.23;63.80;98726.38;5052038;28;20402;-81
2021/12/02 09:29:58;;;;;;;6.03;4.35;;;;;;;7.06;64.16;98727.28;5052936;28;20057;-81
2021/12/02 09:32:25;;;;;;;5.47;4.00;;;;;;;7.16;64.25;98734.41;5047305;28;20474;-80
2021/12/02 09:34:53;;;;;;;6.05;3.80;;;;;;;7.44;62.99;98736.69;5054072;28;20057;-81
2021/12/02 09:37:20;;;;;;;5.03;3.53;;;;;;;7.91;62.02;98750.34;5051501;28;20040;-82
2021/12/02 09:39:47;;;;;;;5.82;3.58;;;;;;;8.19;60.94;98739.50;5053583;28;20059;-81
2021/12/02 09:42:15;;;;;;;5.70;2.90;;;;;;;8.22;60.41;98743.53;5035767;28;20053;-81
2021/12/02 09:44:46;;;;;;;4.78;2.80;;;;;;;8.81;59.17;98737.69;5053629;28;20048;-81
2021/12/02 09:47:16;;;;;;;4.63;2.63;;;;;;;10.74;54.47;98730.72;5048819;28;20057;-81
2021/12/02 09:49:44;;;;;;;3.83;2.47;;;;;;;10.37;54.63;98742.03;5046337;28;20384;-80
2021/12/02 09:52:14;;;;;;;4.55;2.35;;;;;;;10.42;54.48;98746.56;5053397;28;20056;-84
2021/12/02 09:54:44;;;;;;;6.18;2.22;;;;;;;10.08;54.86;98744.00;5049711;28;20061;-84
2021/12/02 09:57:14;;;;;;;3.38;2.08;;;;;;;9.81;55.85;98744.81;5045427;28;20060;-82
2021/12/02 09:59:49;;;;;;;3.38;2.25;;;;;;;9.85;55.58;98740.97;5053440;28;20053;-81
2021/12/02 10:02:20;;;;;;;2.65;2.08;;;;;;;10.33;54.38;98738.34;5052801;28;20489;-81
2021/12/02 10:04:52;;;;;;;2.75;2.10;;;;;;;10.64;52.87;98734.81;5042924;28;20052;-82
2021/12/02 10:07:25;;;;;;;5.53;1.73;;;;;;;10.72;52.60;98744.19;5041331;28;20057;-80
2021/12/02 10:10:01;;;;;;;4.60;1.70;;;;;;;9.98;54.30;98744.50;5044609;28;20053;-81
2021/12/02 10:12:29;;;;;;;3.47;2.33;;;;;;;9.65;54.63;98748.31;5048330;28;20056;-81
2021/12/02 10:15:00;;;;;;;4.03;1.85;;;;;;;9.32;55.89;98752.06;5039740;28;20049;-81
2021/12/02 10:17:34;;;;;;;2.60;2.03;;;;;;;8.91;56.67;98745.56;5053492;28;20045;-81
2021/12/02 10:20:18;;;;;;;3.70;1.92;;;;;;;8.70;57.36;98753.19;5039791;28;20467;-81
2021/12/02 10:23:09;;;;;;;4.05;1.85;;;;;;;8.39;56.40;98764.75;5040289;28;20432;-81
2021/12/02 10:25:37;;;;;;;4.30;1.90;;;;;;;8.39;57.53;98756.44;5039298;28;20049;-81
2021/12/02 10:28:06;;;;;;;2.90;2.10;;;;;;;8.18;58.04;98765.59;5033309;28;20053;-81
2021/12/02 10:30:35;;;;;;;3.53;2.50;;;;;;;8.19;58.54;98752.53;5034070;28;20525;-80
2021/12/02 10:33:03;;;;;;;3.08;2.15;;;;;;;8.15;58.63;98760.75;5044502;28;20405;-80
2021/12/02 10:35:41;;;;;;;4.20;2.40;;;;;;;8.05;58.09;98767.50;5052751;28;20059;-80
2021/12/02 10:38:27;;;;;;;5.35;2.80;;;;;;;7.84;59.33;98775.03;5048592;28;20083;-80
2021/12/02 10:40:59;;;;;;;4.00;2.80;;;;;;;7.72;59.32;98768.25;5048984;28;20060;-80
2021/12/02 10:43:28;;;;;;;4.40;3.30;;;;;;;7.45;59.62;98772.34;5035469;28;20046;-80
2021/12/02 10:46:13;;;;;;;4.78;3.60;;;;;;;7.40;59.54;98774.50;5040104;28;20049;-80
2021/12/02 10:48:47;;;;;;;5.35;3.08;;;;;;;7.20;60.36;98782.44;5039711;28;20049;-80
2021/12/02 10:51:38;;;;;;;4.70;3.28;;;;;;;7.10;60.51;98786.38;5044797;28;20052;-82
2021/12/02 10:54:08;;;;;;;4.95;3.35;;;;;;;7.03;61.16;98779.75;5041291;28;20057;-83
2021/12/02 10:56:38;;;;;;;5.32;3.38;;;;;;;7.13;61.18;98771.06;5041562;28;20042;-80
2021/12/02 10:59:24;;;;;;;3.80;2.72;;;;;;;7.09;59.64;98781.97;5040703;28;20049;-79
2021/12/02 11:01:52;;;;;;;7.50;3.63;;;;;;;7.15;61.20;98773.50;5038200;28;20402;-79
2021/12/02 11:04:22;;;;;;;4.75;3.13;;;;;;;7.13;60.84;98775.78;5041670;28;20057;-80
2021/12/02 11:06:50;;;;;;;5.32;3.47;;;;;;;7.15;61.41;98779.03;5044066;28;20064;-83
2021/12/02 11:09:28;;;;;;;5.13;3.50;;;;;;;7.15;61.21;98777.06;5043415;28;20536;-83
2021/12/02 11:12:10;;;;;;;6.03;4.05;;;;;;;7.19;61.17;98796.63;5043836;28;20053;-82
2021/12/02 11:14:41;;;;;;;7.93;4.13;;;;;;;7.15;61.78;98793.69;5043336;28;20494;-82
2021/12/02 11:17:11;;;;;;;4.53;3.58;;;;;;;7.26;61.55;98786.63;5048183;28;20049;-83
2021/12/02 11:19:43;;;;;;;5.90;4.22;;;;;;;7.23;61.42;98786.50;5051789;28;20053;-83
2021/12/02 11:22:12;;;;;;;5.68;3.40;;;;;;;7.32;60.63;98788.06;5040633;28;20494;-83
2021/12/02 11:24:40;;;;;;;3.80;3.10;;;;;;;7.12;60.96;98783.28;5035462;28;20062;-83
2021/12/02 11:27:18;;;;;;;4.25;2.90;;;;;;;7.24;60.22;98786.13;5038663;28;20053;-82
2021/12/02 11:29:58;;;;;;;5.32;3.10;;;;;;;7.21;59.99;98781.28;5038373;28;20053;-82
2021/12/02 11:32:36;;;;;;;5.88;2.95;;;;;;;7.21;59.64;98783.25;5055866;28;20063;-84
2021/12/02 11:35:12;;;;;;;4.40;3.25;;;;;;;7.31;59.73;98783.69;5045736;28;20383;-84
2021/12/02 11:37:41;;;;;;;5.07;3.70;;;;;;;7.34;60.40;98786.94;5035326;28;20054;-84
2021/12/02 11:40:11;;;;;;;6.45;4.22;;;;;;;7.40;60.14;98788.34;5042925;28;20046;-84
2021/12/02 11:42:38;;;;;;;;;;;;;;;7.34;58.71;98793.28;5053357;28;20056;-84
2021/12/02 11:45:09;;;;;;;2.90;2.00;;;;;;;7.08;58.48;98796.19;5052652;28;19927;-83
2021/12/02 11:47:37;;;;;;;3.45;1.85;;;;;;;7.08;58.43;98796.19;5052385;28;20049;-83
2021/12/02 11:50:08;;;;;;;2.97;1.80;;;;;;;6.88;58.57;98798.50;5049362;28;20501;-82
2021/12/02 11:52:37;;;;;;;2.97;1.77;;;;;;;6.86;58.68;98800.00;5034422;28;20490;-83
2021/12/02 11:55:08;;;;;;;2.17;1.60;;;;;;;6.88;58.65;98798.50;5043722;28;20075;-81
2021/12/02 11:57:36;;;;;;;4.35;2.10;;;;;;;6.91;59.02;98797.06;5055333;28;20064;-81
2021/12/02 12:00:08;;;;;;;3.28;2.28;;;;;;;6.98;58.93;98799.31;5048695;28;20049;-81
2021/12/02 12:02:37;;;;;;;2.75;1.80;;;;;;;6.99;59.30;98804.53;5042815;28;20069;-81